createdAt,value
2018-05-13T00:00:24.175Z,21.30
2018-05-13T00:01:01.565Z,21.30
2018-05-13T00:01:38.770Z,21.30
2018-05-13T00:02:16.208Z,21.30
2018-05-13T00:02:54.473Z,21.20
2018-05-13T00:03:32.507Z,21.30
2018-05-13T00:04:09.926Z,21.30
2018-05-13T00:04:47.284Z,21.30
2018-05-13T00:05:24.468Z,21.30
2018-05-13T00:06:01.922Z,21.30
2018-05-13T00:06:39.925Z,21.20
2018-05-13T00:07:17.361Z,21.20
2018-05-13T00:07:54.804Z,21.30
2018-05-13T00:08:32.971Z,21.20
2018-05-13T00:09:10.423Z,21.20
2018-05-13T00:09:47.751Z,21.20
2018-05-13T00:10:24.932Z,21.20
2018-05-13T00:11:02.995Z,21.30
2018-05-13T00:11:41.196Z,21.30
2018-05-13T00:12:18.589Z,21.30
2018-05-13T00:12:55.753Z,21.30
2018-05-13T00:13:32.987Z,21.30
2018-05-13T00:14:11.243Z,21.20
2018-05-13T00:14:48.554Z,21.20
2018-05-13T00:15:25.958Z,21.30
2018-05-13T00:16:04.050Z,21.30
2018-05-13T00:16:41.307Z,21.30
2018-05-13T00:17:19.521Z,21.30
2018-05-13T00:17:56.866Z,21.30
2018-05-13T00:18:34.040Z,21.30
2018-05-13T00:19:11.440Z,21.20
2018-05-13T00:19:49.641Z,21.20
2018-05-13T00:20:27.831Z,21.20
2018-05-13T00:21:05.049Z,21.20
2018-05-13T00:21:42.238Z,21.30
2018-05-13T00:22:19.536Z,21.30
2018-05-13T00:22:57.755Z,21.30
2018-05-13T00:23:35.196Z,21.20
2018-05-13T00:24:13.314Z,21.20
2018-05-13T00:24:51.519Z,21.20
2018-05-13T00:25:28.973Z,21.20
2018-05-13T00:26:06.143Z,21.30
2018-05-13T00:26:44.374Z,21.30
2018-05-13T00:27:21.608Z,21.30
2018-05-13T00:27:58.930Z,21.30
2018-05-13T00:28:36.310Z,21.30
2018-05-13T00:29:14.486Z,21.20
2018-05-13T00:29:52.672Z,21.30
2018-05-13T00:30:30.093Z,21.30
2018-05-13T00:31:07.467Z,21.30
2018-05-13T00:31:44.891Z,21.30
2018-05-13T00:32:22.248Z,21.20
2018-05-13T00:32:59.532Z,21.30
2018-05-13T00:33:36.821Z,21.30
2018-05-13T00:34:14.270Z,21.30
2018-05-13T00:34:51.673Z,21.30
2018-05-13T00:35:28.854Z,21.30
2018-05-13T00:36:06.290Z,21.30
2018-05-13T00:36:44.335Z,21.30
2018-05-13T00:37:22.528Z,21.30
2018-05-13T00:38:00.003Z,21.30
2018-05-13T00:38:37.154Z,21.30
2018-05-13T00:39:15.408Z,21.30
2018-05-13T00:39:53.366Z,21.30
2018-05-13T00:40:30.647Z,21.30
2018-05-13T00:41:08.101Z,21.20
2018-05-13T00:41:45.238Z,21.20
2018-05-13T00:42:22.713Z,21.30
2018-05-13T00:42:59.890Z,21.20
2018-05-13T00:43:37.299Z,21.20
2018-05-13T00:44:14.804Z,21.20
2018-05-13T00:44:52.770Z,21.20
2018-05-13T00:45:30.983Z,21.20
2018-05-13T00:46:08.379Z,21.20
2018-05-13T00:46:46.451Z,21.20
2018-05-13T00:47:23.913Z,21.20
2018-05-13T00:48:01.389Z,21.30
2018-05-13T00:48:38.801Z,21.30
2018-05-13T00:49:15.956Z,21.30
2018-05-13T00:49:53.397Z,21.30
2018-05-13T00:50:30.881Z,21.20
2018-05-13T00:51:08.232Z,21.20
2018-05-13T00:51:45.547Z,21.20
2018-05-13T00:52:22.710Z,21.30
2018-05-13T00:53:00.134Z,21.20
2018-05-13T00:53:37.542Z,21.20
2018-05-13T00:54:14.811Z,21.20
2018-05-13T00:54:53.004Z,21.20
2018-05-13T00:55:30.257Z,21.20
2018-05-13T00:56:07.781Z,21.20
2018-05-13T00:56:45.291Z,21.20
2018-05-13T00:57:23.356Z,21.20
2018-05-13T00:58:00.794Z,21.20
2018-05-13T00:58:38.212Z,21.10
2018-05-13T00:59:16.379Z,21.10
2018-05-13T00:59:53.692Z,21.10
2018-05-13T01:00:31.066Z,21.20
2018-05-13T01:01:09.121Z,21.20
2018-05-13T01:01:46.527Z,21.20
2018-05-13T01:02:23.959Z,21.20
2018-05-13T01:03:02.068Z,21.20
2018-05-13T01:03:40.066Z,21.20
2018-05-13T01:04:17.341Z,21.20
2018-05-13T01:04:55.531Z,21.20
2018-05-13T01:05:32.940Z,21.20
2018-05-13T01:06:11.117Z,21.20
2018-05-13T01:06:48.380Z,21.20
2018-05-13T01:07:26.594Z,21.20
2018-05-13T01:08:03.846Z,21.20
2018-05-13T01:08:41.133Z,21.20
2018-05-13T01:09:19.323Z,21.20
2018-05-13T01:09:56.691Z,21.20
2018-05-13T01:10:33.930Z,21.30
2018-05-13T01:11:12.095Z,21.20
2018-05-13T01:11:49.442Z,21.20
2018-05-13T01:12:26.797Z,21.20
2018-05-13T01:13:05.005Z,21.30
2018-05-13T01:13:42.470Z,21.20
2018-05-13T01:14:19.740Z,21.20
2018-05-13T01:14:57.115Z,21.20
2018-05-13T01:15:34.343Z,21.20
2018-05-13T01:16:11.750Z,21.20
2018-05-13T01:16:49.240Z,21.20
2018-05-13T01:17:27.506Z,21.20
2018-05-13T01:18:04.829Z,21.20
2018-05-13T01:18:42.171Z,21.20
2018-05-13T01:19:19.548Z,21.20
2018-05-13T01:19:56.937Z,21.20
2018-05-13T01:20:34.244Z,21.20
2018-05-13T01:21:11.462Z,21.30
2018-05-13T01:21:48.949Z,21.20
2018-05-13T01:22:26.186Z,21.30
2018-05-13T01:23:03.512Z,21.20
2018-05-13T01:23:40.982Z,21.20
2018-05-13T01:24:18.180Z,21.20
2018-05-13T01:24:55.353Z,21.20
2018-05-13T01:25:32.729Z,21.20
2018-05-13T01:26:10.894Z,21.20
2018-05-13T01:26:48.914Z,21.10
2018-05-13T01:27:26.302Z,21.10
2018-05-13T01:28:03.493Z,21.20
2018-05-13T01:28:40.671Z,21.10
2018-05-13T01:29:18.830Z,21.10
2018-05-13T01:29:56.110Z,21.10
2018-05-13T01:30:33.581Z,21.20
2018-05-13T01:31:11.757Z,21.10
2018-05-13T01:31:49.945Z,21.10
2018-05-13T01:32:27.178Z,21.10
2018-05-13T01:33:04.612Z,21.10
2018-05-13T01:33:42.790Z,21.10
2018-05-13T01:34:21.013Z,21.10
2018-05-13T01:34:58.329Z,21.10
2018-05-13T01:35:36.460Z,21.10
2018-05-13T01:36:14.652Z,21.10
2018-05-13T01:36:52.098Z,21.10
2018-05-13T01:37:29.512Z,21.10
2018-05-13T01:38:07.770Z,21.10
2018-05-13T01:38:45.055Z,21.10
2018-05-13T01:39:22.298Z,21.10
2018-05-13T01:39:59.554Z,21.10
2018-05-13T01:40:37.748Z,21.10
2018-05-13T01:41:14.950Z,21.10
2018-05-13T01:41:53.088Z,21.10
2018-05-13T01:42:31.284Z,21.10
2018-05-13T01:43:08.696Z,21.10
2018-05-13T01:43:46.857Z,21.10
2018-05-13T01:44:24.254Z,21.10
2018-05-13T01:45:02.335Z,21.10
2018-05-13T01:45:39.761Z,21.10
2018-05-13T01:46:17.987Z,21.00
2018-05-13T01:46:55.136Z,21.00
2018-05-13T01:47:32.556Z,21.00
2018-05-13T01:48:10.778Z,21.00
2018-05-13T01:48:48.100Z,20.90
2018-05-13T01:49:26.136Z,20.90
2018-05-13T01:50:03.543Z,21.00
2018-05-13T01:50:41.686Z,20.90
2018-05-13T01:51:18.940Z,20.90
2018-05-13T01:51:56.367Z,20.90
2018-05-13T01:52:33.752Z,20.90
2018-05-13T01:53:10.994Z,21.00
2018-05-13T01:53:48.450Z,21.00
2018-05-13T01:54:25.887Z,20.90
2018-05-13T01:55:03.132Z,21.00
2018-05-13T01:55:40.597Z,20.90
2018-05-13T01:56:17.847Z,20.90
2018-05-13T01:56:56.062Z,20.80
2018-05-13T01:57:33.514Z,20.80
2018-05-13T01:58:11.669Z,20.80
2018-05-13T01:58:48.881Z,20.80
2018-05-13T01:59:26.307Z,20.80
2018-05-13T02:00:04.562Z,20.80
2018-05-13T02:00:41.786Z,20.90
2018-05-13T02:01:19.878Z,20.80
2018-05-13T02:01:57.209Z,20.80
2018-05-13T02:02:35.426Z,20.80
2018-05-13T02:03:12.879Z,20.80
2018-05-13T02:03:50.922Z,20.80
2018-05-13T02:04:28.250Z,20.80
2018-05-13T02:05:05.774Z,20.80
2018-05-13T02:05:43.860Z,20.80
2018-05-13T02:06:21.945Z,20.80
2018-05-13T02:06:59.222Z,20.80
2018-05-13T02:07:36.574Z,20.90
2018-05-13T02:08:14.016Z,20.90
2018-05-13T02:08:51.971Z,20.90
2018-05-13T02:09:29.439Z,20.90
2018-05-13T02:10:06.594Z,20.90
2018-05-13T02:10:44.806Z,20.90
2018-05-13T02:11:23.016Z,20.90
2018-05-13T02:12:00.277Z,20.90
2018-05-13T02:12:37.673Z,20.90
2018-05-13T02:13:15.035Z,20.90
2018-05-13T02:13:53.224Z,20.80
2018-05-13T02:14:30.866Z,20.80
2018-05-13T02:15:08.271Z,20.80
2018-05-13T02:15:45.737Z,20.80
2018-05-13T02:16:23.214Z,20.80
2018-05-13T02:17:00.400Z,20.80
2018-05-13T02:17:38.610Z,20.80
2018-05-13T02:18:16.038Z,20.80
2018-05-13T02:18:54.076Z,20.80
2018-05-13T02:19:31.502Z,20.80
2018-05-13T02:20:09.638Z,20.80
2018-05-13T02:20:47.840Z,20.80
2018-05-13T02:21:25.093Z,20.80
2018-05-13T02:22:02.512Z,20.80
2018-05-13T02:22:39.719Z,20.90
2018-05-13T02:23:17.110Z,20.90
2018-05-13T02:23:55.282Z,20.90
2018-05-13T02:24:32.749Z,20.90
2018-05-13T02:25:10.962Z,20.90
2018-05-13T02:25:48.343Z,20.90
2018-05-13T02:26:26.559Z,20.80
2018-05-13T02:27:04.724Z,20.80
2018-05-13T02:27:42.078Z,20.80
2018-05-13T02:28:19.299Z,20.80
2018-05-13T02:28:56.567Z,20.80
2018-05-13T02:29:34.028Z,20.70
2018-05-13T02:30:12.049Z,20.70
2018-05-13T02:30:50.114Z,20.80
2018-05-13T02:31:28.106Z,20.70
2018-05-13T02:32:06.274Z,20.70
2018-05-13T02:32:43.539Z,20.70
2018-05-13T02:33:21.043Z,20.70
2018-05-13T02:33:58.345Z,20.80
2018-05-13T02:34:36.621Z,20.80
2018-05-13T02:35:13.992Z,20.70
2018-05-13T02:35:51.342Z,20.70
2018-05-13T02:36:28.677Z,20.70
2018-05-13T02:37:05.987Z,20.80
2018-05-13T02:37:43.462Z,20.70
2018-05-13T02:38:20.685Z,20.70
2018-05-13T02:38:58.861Z,20.70
2018-05-13T02:39:36.109Z,20.70
2018-05-13T02:40:14.329Z,20.60
2018-05-13T02:40:51.682Z,20.60
2018-05-13T02:41:28.841Z,20.60
2018-05-13T02:42:06.299Z,20.60
2018-05-13T02:42:43.477Z,20.60
2018-05-13T02:43:21.621Z,20.60
2018-05-13T02:43:59.807Z,20.60
2018-05-13T02:44:38.049Z,20.60
2018-05-13T02:45:15.464Z,20.60
2018-05-13T02:45:54.162Z,20.60
2018-05-13T02:46:31.495Z,20.60
2018-05-13T02:47:08.959Z,20.60
2018-05-13T02:47:46.403Z,20.70
2018-05-13T02:48:23.804Z,20.70
2018-05-13T02:49:01.212Z,20.70
2018-05-13T02:49:38.563Z,20.70
2018-05-13T02:50:15.831Z,20.70
2018-05-13T02:50:53.025Z,20.70
2018-05-13T02:51:31.194Z,20.80
2018-05-13T02:52:09.300Z,20.70
2018-05-13T02:52:46.485Z,20.70
2018-05-13T02:53:23.659Z,20.70
2018-05-13T02:54:01.735Z,20.70
2018-05-13T02:54:39.170Z,20.70
2018-05-13T02:55:16.550Z,20.70
2018-05-13T02:55:53.894Z,20.70
2018-05-13T02:56:31.945Z,20.80
2018-05-13T02:57:09.325Z,20.80
2018-05-13T02:57:46.566Z,20.80
2018-05-13T02:58:23.898Z,20.80
2018-05-13T02:59:01.892Z,20.80
2018-05-13T02:59:39.161Z,20.80
2018-05-13T03:00:17.339Z,20.80
2018-05-13T03:00:55.312Z,20.80
2018-05-13T03:01:32.478Z,20.80
2018-05-13T03:02:09.886Z,20.80
2018-05-13T03:02:47.298Z,20.80
2018-05-13T03:03:24.633Z,20.80
2018-05-13T03:04:01.910Z,20.80
2018-05-13T03:04:39.141Z,20.80
2018-05-13T03:05:17.286Z,20.80
2018-05-13T03:05:54.609Z,20.80
2018-05-13T03:06:32.005Z,20.80
2018-05-13T03:07:09.258Z,20.80
2018-05-13T03:07:47.511Z,20.80
2018-05-13T03:08:25.688Z,20.90
2018-05-13T03:09:03.088Z,20.90
2018-05-13T03:09:40.421Z,20.90
2018-05-13T03:10:17.804Z,20.90
2018-05-13T03:10:55.819Z,20.90
2018-05-13T03:11:34.000Z,20.90
2018-05-13T03:12:11.380Z,20.90
2018-05-13T03:12:49.576Z,20.90
2018-05-13T03:13:27.663Z,20.80
2018-05-13T03:14:04.976Z,20.90
2018-05-13T03:14:42.259Z,20.90
2018-05-13T03:15:19.519Z,20.90
2018-05-13T03:15:57.474Z,20.90
2018-05-13T03:16:35.456Z,20.90
2018-05-13T03:17:12.662Z,20.90
2018-05-13T03:17:50.042Z,20.90
2018-05-13T03:18:28.211Z,20.90
2018-05-13T03:19:06.479Z,20.90
2018-05-13T03:19:44.410Z,20.90
2018-05-13T03:20:21.890Z,20.90
2018-05-13T03:20:59.114Z,21.00
2018-05-13T03:21:36.514Z,21.00
2018-05-13T03:22:13.731Z,21.00
2018-05-13T03:22:51.829Z,20.90
2018-05-13T03:23:29.211Z,20.90
2018-05-13T03:24:06.634Z,20.90
2018-05-13T03:24:44.880Z,20.90
2018-05-13T03:25:22.968Z,20.90
2018-05-13T03:26:00.185Z,20.90
2018-05-13T03:26:37.559Z,20.90
2018-05-13T03:27:15.039Z,21.00
2018-05-13T03:27:52.443Z,20.90
2018-05-13T03:28:29.874Z,20.90
2018-05-13T03:29:07.163Z,21.00
2018-05-13T03:29:44.625Z,20.90
2018-05-13T03:30:21.841Z,20.90
2018-05-13T03:30:59.033Z,20.90
2018-05-13T03:31:37.115Z,20.90
2018-05-13T03:32:14.560Z,20.90
2018-05-13T03:32:51.824Z,20.90
2018-05-13T03:33:29.080Z,20.90
2018-05-13T03:34:07.338Z,20.90
2018-05-13T03:34:44.752Z,20.90
2018-05-13T03:35:22.196Z,20.90
2018-05-13T03:36:00.301Z,20.90
2018-05-13T03:36:37.495Z,20.90
2018-05-13T03:37:14.922Z,20.90
2018-05-13T03:37:53.062Z,20.80
2018-05-13T03:38:30.518Z,20.90
2018-05-13T03:39:07.918Z,20.90
2018-05-13T03:39:45.062Z,20.90
2018-05-13T03:40:22.471Z,20.90
2018-05-13T03:40:59.622Z,20.90
2018-05-13T03:41:37.063Z,20.90
2018-05-13T03:42:14.483Z,20.90
2018-05-13T03:42:52.671Z,20.90
2018-05-13T03:43:29.987Z,20.90
2018-05-13T03:44:07.257Z,20.90
2018-05-13T03:44:45.326Z,20.90
2018-05-13T03:45:22.743Z,20.90
2018-05-13T03:45:59.939Z,20.80
2018-05-13T03:46:38.105Z,20.90
2018-05-13T03:47:15.403Z,20.90
2018-05-13T03:47:52.795Z,20.90
2018-05-13T03:48:31.018Z,20.90
2018-05-13T03:49:09.087Z,20.90
2018-05-13T03:49:46.334Z,20.90
2018-05-13T03:50:23.814Z,20.90
2018-05-13T03:51:01.109Z,20.90
2018-05-13T03:51:38.346Z,20.90
2018-05-13T03:52:15.815Z,20.90
2018-05-13T03:52:53.273Z,20.90
2018-05-13T03:53:30.466Z,20.90
2018-05-13T03:54:07.898Z,20.90
2018-05-13T03:54:45.329Z,20.80
2018-05-13T03:55:23.246Z,20.80
2018-05-13T03:56:01.427Z,20.80
2018-05-13T03:56:38.765Z,20.80
2018-05-13T03:57:16.830Z,20.80
2018-05-13T03:57:54.179Z,20.80
2018-05-13T03:58:31.345Z,20.80
2018-05-13T03:59:08.731Z,20.80
2018-05-13T03:59:46.949Z,20.80
2018-05-13T04:00:24.302Z,20.80
2018-05-13T04:01:02.293Z,20.80
2018-05-13T04:01:39.645Z,20.80
2018-05-13T04:02:16.801Z,20.90
2018-05-13T04:02:54.260Z,20.80
2018-05-13T04:03:31.426Z,20.80
2018-05-13T04:04:09.610Z,20.90
2018-05-13T04:04:46.947Z,20.80
2018-05-13T04:05:24.184Z,20.80
2018-05-13T04:06:01.401Z,20.80
2018-05-13T04:06:39.614Z,20.80
2018-05-13T04:07:16.951Z,20.80
2018-05-13T04:07:54.129Z,20.80
2018-05-13T04:08:31.619Z,20.80
2018-05-13T04:09:09.736Z,20.80
2018-05-13T04:09:46.910Z,20.80
2018-05-13T04:10:25.082Z,20.70
2018-05-13T04:11:02.327Z,20.70
2018-05-13T04:11:39.696Z,20.80
2018-05-13T04:12:17.027Z,20.80
2018-05-13T04:12:55.200Z,20.80
2018-05-13T04:13:32.400Z,20.70
2018-05-13T04:14:09.641Z,20.80
2018-05-13T04:14:47.847Z,20.90
2018-05-13T04:15:25.084Z,20.90
2018-05-13T04:16:03.232Z,20.80
2018-05-13T04:16:40.457Z,20.80
2018-05-13T04:17:17.741Z,20.70
2018-05-13T04:17:55.177Z,20.70
2018-05-13T04:18:32.372Z,20.70
2018-05-13T04:19:09.541Z,20.70
2018-05-13T04:19:46.788Z,20.70
2018-05-13T04:20:24.184Z,20.70
2018-05-13T04:21:02.169Z,20.70
2018-05-13T04:21:39.495Z,20.80
2018-05-13T04:22:17.686Z,20.80
2018-05-13T04:22:55.090Z,20.80
2018-05-13T04:23:33.267Z,20.90
2018-05-13T04:24:10.531Z,20.90
2018-05-13T04:24:47.798Z,20.90
2018-05-13T04:25:25.916Z,20.90
2018-05-13T04:26:03.282Z,20.90
2018-05-13T04:26:41.396Z,20.90
2018-05-13T04:27:18.667Z,20.90
2018-05-13T04:27:56.070Z,20.90
2018-05-13T04:28:33.314Z,20.90
2018-05-13T04:29:10.774Z,20.90
2018-05-13T04:29:48.875Z,20.90
2018-05-13T04:30:27.091Z,20.90
2018-05-13T04:31:04.351Z,20.90
2018-05-13T04:31:41.727Z,20.90
2018-05-13T04:32:19.906Z,20.90
2018-05-13T04:32:57.321Z,20.90
2018-05-13T04:33:34.745Z,20.90
2018-05-13T04:34:12.155Z,20.90
2018-05-13T04:34:49.601Z,20.90
2018-05-13T04:35:26.812Z,20.90
2018-05-13T04:36:04.304Z,20.90
2018-05-13T04:36:42.380Z,20.90
2018-05-13T04:37:20.341Z,20.80
2018-05-13T04:37:57.720Z,20.80
2018-05-13T04:38:34.920Z,20.90
2018-05-13T04:39:12.160Z,20.90
2018-05-13T04:39:49.642Z,20.80
2018-05-13T04:40:26.903Z,20.80
2018-05-13T04:41:04.341Z,20.80
2018-05-13T04:41:41.724Z,20.90
2018-05-13T04:42:19.153Z,20.90
2018-05-13T04:42:56.551Z,21.00
2018-05-13T04:43:34.035Z,20.90
2018-05-13T04:44:12.034Z,20.90
2018-05-13T04:44:50.068Z,20.90
2018-05-13T04:45:28.010Z,20.90
2018-05-13T04:46:06.174Z,20.90
2018-05-13T04:46:43.447Z,20.90
2018-05-13T04:47:21.671Z,20.80
2018-05-13T04:47:59.152Z,20.80
2018-05-13T04:48:36.598Z,20.70
2018-05-13T04:49:13.979Z,20.70
2018-05-13T04:49:51.238Z,20.70
2018-05-13T04:50:29.395Z,20.60
2018-05-13T04:51:06.790Z,20.60
2018-05-13T04:51:44.070Z,20.60
2018-05-13T04:52:21.478Z,20.60
2018-05-13T04:52:58.665Z,20.60
2018-05-13T04:53:36.162Z,20.60
2018-05-13T04:54:14.184Z,20.60
2018-05-13T04:54:51.422Z,20.60
2018-05-13T04:55:29.743Z,20.60
2018-05-13T04:56:07.107Z,20.60
2018-05-13T04:56:44.339Z,20.60
2018-05-13T04:57:22.516Z,20.50
2018-05-13T04:57:59.823Z,20.50
2018-05-13T04:58:37.233Z,20.50
2018-05-13T04:59:14.601Z,20.50
2018-05-13T04:59:52.801Z,20.50
2018-05-13T05:00:31.046Z,20.50
2018-05-13T05:01:08.282Z,20.50
2018-05-13T05:01:46.469Z,20.60
2018-05-13T05:02:24.467Z,20.60
2018-05-13T05:03:01.891Z,20.60
2018-05-13T05:03:40.027Z,20.60
2018-05-13T05:04:18.238Z,20.70
2018-05-13T05:04:55.578Z,20.60
2018-05-13T05:05:32.937Z,20.70
2018-05-13T05:06:11.122Z,20.70
2018-05-13T05:06:48.318Z,20.70
2018-05-13T05:07:25.646Z,20.70
2018-05-13T05:08:02.982Z,20.70
2018-05-13T05:08:41.171Z,20.70
2018-05-13T05:09:18.399Z,20.70
2018-05-13T05:09:55.625Z,20.70
2018-05-13T05:10:33.752Z,20.70
2018-05-13T05:11:11.149Z,20.70
2018-05-13T05:11:48.304Z,20.60
2018-05-13T05:12:25.715Z,20.60
2018-05-13T05:13:02.885Z,20.60
2018-05-13T05:13:40.094Z,20.60
2018-05-13T05:14:17.443Z,20.60
2018-05-13T05:14:55.475Z,20.60
2018-05-13T05:15:32.715Z,20.60
2018-05-13T05:16:10.016Z,20.60
2018-05-13T05:16:47.386Z,20.60
2018-05-13T05:17:25.502Z,20.60
2018-05-13T05:18:02.850Z,20.60
2018-05-13T05:18:40.253Z,20.60
2018-05-13T05:19:18.348Z,20.60
2018-05-13T05:19:56.445Z,20.60
2018-05-13T05:20:33.672Z,20.60
2018-05-13T05:21:11.092Z,20.60
2018-05-13T05:21:48.541Z,20.60
2018-05-13T05:22:26.685Z,20.60
2018-05-13T05:23:04.811Z,20.50
2018-05-13T05:23:41.993Z,20.50
2018-05-13T05:24:19.280Z,20.50
2018-05-13T05:24:56.686Z,20.50
2018-05-13T05:25:34.058Z,20.40
2018-05-13T05:26:11.510Z,20.40
2018-05-13T05:26:48.894Z,20.40
2018-05-13T05:27:27.138Z,20.30
2018-05-13T05:28:04.483Z,20.30
2018-05-13T05:28:41.839Z,20.30
2018-05-13T05:29:19.130Z,20.40
2018-05-13T05:29:56.583Z,20.40
2018-05-13T05:30:34.694Z,20.40
2018-05-13T05:31:12.145Z,20.40
2018-05-13T05:31:50.287Z,20.40
2018-05-13T05:32:27.679Z,20.40
2018-05-13T05:33:04.876Z,20.40
2018-05-13T05:33:43.022Z,20.40
2018-05-13T05:34:20.245Z,20.40
2018-05-13T05:34:58.573Z,20.40
2018-05-13T05:35:35.715Z,20.40
2018-05-13T05:36:12.890Z,20.40
2018-05-13T05:36:50.345Z,20.50
2018-05-13T05:37:27.589Z,20.50
2018-05-13T05:38:05.792Z,20.40
2018-05-13T05:38:43.160Z,20.40
2018-05-13T05:39:20.463Z,20.40
2018-05-13T05:39:58.526Z,20.30
2018-05-13T05:40:35.811Z,20.30
2018-05-13T05:41:13.897Z,20.30
2018-05-13T05:41:51.437Z,20.30
2018-05-13T05:42:28.618Z,20.30
2018-05-13T05:43:06.027Z,20.30
2018-05-13T05:43:43.189Z,20.30
2018-05-13T05:44:21.193Z,20.30
2018-05-13T05:44:58.561Z,20.30
2018-05-13T05:45:35.759Z,20.30
2018-05-13T05:46:13.000Z,20.30
2018-05-13T05:46:50.312Z,20.30
2018-05-13T05:47:28.481Z,20.30
2018-05-13T05:48:05.818Z,20.30
2018-05-13T05:48:44.044Z,20.30
2018-05-13T05:49:21.426Z,20.30
2018-05-13T05:49:58.771Z,20.30
2018-05-13T05:50:36.815Z,20.30
2018-05-13T05:51:14.021Z,20.30
2018-05-13T05:51:52.221Z,20.30
2018-05-13T05:52:29.554Z,20.30
2018-05-13T05:53:07.738Z,20.30
2018-05-13T05:53:45.917Z,20.30
2018-05-13T05:54:23.287Z,20.30
2018-05-13T05:55:00.555Z,20.30
2018-05-13T05:55:38.766Z,20.30
2018-05-13T05:56:16.122Z,20.30
2018-05-13T05:56:54.387Z,20.30
2018-05-13T05:57:32.550Z,20.30
2018-05-13T05:58:09.788Z,20.30
2018-05-13T05:58:47.204Z,20.30
2018-05-13T05:59:25.386Z,20.30
2018-05-13T06:00:02.620Z,20.30
2018-05-13T06:00:40.749Z,20.30
2018-05-13T06:01:17.995Z,20.30
2018-05-13T06:01:55.379Z,20.30
2018-05-13T06:02:33.598Z,20.30
2018-05-13T06:03:10.989Z,20.30
2018-05-13T06:03:48.257Z,20.40
2018-05-13T06:04:25.667Z,20.40
2018-05-13T06:05:02.814Z,20.40
2018-05-13T06:06:25.671Z,20.50
2018-05-13T06:07:03.901Z,20.40
2018-05-13T06:07:41.104Z,20.40
2018-05-13T06:08:18.268Z,20.40
2018-05-13T06:08:56.477Z,20.20
2018-05-13T06:09:33.831Z,20.20
2018-05-13T06:10:11.055Z,20.20
2018-05-13T06:10:48.259Z,20.20
2018-05-13T06:11:25.690Z,20.20
2018-05-13T06:12:03.192Z,20.10
2018-05-13T06:12:41.149Z,20.10
2018-05-13T06:13:19.341Z,20.10
2018-05-13T06:13:57.538Z,20.20
2018-05-13T06:14:34.771Z,20.20
2018-05-13T06:15:12.069Z,20.10
2018-05-13T06:15:49.527Z,20.10
2018-05-13T06:16:27.673Z,20.10
2018-05-13T06:17:05.779Z,20.10
2018-05-13T06:17:42.993Z,20.00
2018-05-13T06:18:20.441Z,20.00
2018-05-13T06:18:58.610Z,20.00
2018-05-13T06:19:35.777Z,20.00
2018-05-13T06:20:13.099Z,20.00
2018-05-13T06:20:50.374Z,20.10
2018-05-13T06:21:27.772Z,20.10
2018-05-13T06:22:05.120Z,20.10
2018-05-13T06:22:42.514Z,20.10
2018-05-13T06:23:19.912Z,20.10
2018-05-13T06:23:58.135Z,20.10
2018-05-13T06:24:36.098Z,20.10
2018-05-13T06:25:14.194Z,20.10
2018-05-13T06:25:52.301Z,20.10
2018-05-13T06:26:29.709Z,20.10
2018-05-13T06:27:07.925Z,20.10
2018-05-13T06:27:45.201Z,20.10
2018-05-13T06:28:22.428Z,20.10
2018-05-13T06:28:59.822Z,20.10
2018-05-13T06:29:38.018Z,20.10
2018-05-13T06:30:16.202Z,20.10
2018-05-13T06:30:54.390Z,20.20
2018-05-13T06:31:31.763Z,20.20
2018-05-13T06:32:09.134Z,20.20
2018-05-13T06:32:47.216Z,20.20
2018-05-13T06:33:24.609Z,20.20
2018-05-13T06:34:01.920Z,20.20
2018-05-13T06:34:40.075Z,20.20
2018-05-13T06:35:17.476Z,20.20
2018-05-13T06:35:55.440Z,20.20
2018-05-13T06:36:32.691Z,20.20
2018-05-13T06:37:10.145Z,20.20
2018-05-13T06:37:47.279Z,20.20
2018-05-13T06:38:25.456Z,20.30
2018-05-13T06:39:02.718Z,20.30
2018-05-13T06:39:40.040Z,20.30
2018-05-13T06:40:18.227Z,20.30
2018-05-13T06:40:55.541Z,20.30
2018-05-13T06:41:32.956Z,20.30
2018-05-13T06:42:11.038Z,20.30
2018-05-13T06:42:48.277Z,20.30
2018-05-13T06:43:26.415Z,20.20
2018-05-13T06:44:04.643Z,20.20
2018-05-13T06:44:41.846Z,20.10
2018-05-13T06:45:19.328Z,20.20
2018-05-13T06:45:56.508Z,20.20
2018-05-13T06:46:33.777Z,20.20
2018-05-13T06:47:12.031Z,20.20
2018-05-13T06:47:50.214Z,20.10
2018-05-13T06:48:27.442Z,20.10
2018-05-13T06:49:05.677Z,20.10
2018-05-13T06:49:43.098Z,20.10
2018-05-13T06:50:20.431Z,20.10
2018-05-13T06:50:57.784Z,20.20
2018-05-13T06:51:34.994Z,20.10
2018-05-13T06:52:12.457Z,20.10
2018-05-13T06:52:49.889Z,20.10
2018-05-13T06:53:27.383Z,20.10
2018-05-13T06:54:04.635Z,20.20
2018-05-13T06:54:41.937Z,20.20
2018-05-13T06:55:20.181Z,20.20
2018-05-13T06:55:57.545Z,20.20
2018-05-13T06:56:35.815Z,20.20
2018-05-13T06:57:13.848Z,20.20
2018-05-13T06:57:51.875Z,20.20
2018-05-13T06:58:29.178Z,20.20
2018-05-13T06:59:06.450Z,20.20
2018-05-13T06:59:43.619Z,20.20
2018-05-13T07:00:21.077Z,20.20
2018-05-13T07:00:58.590Z,20.20
2018-05-13T07:01:35.988Z,20.20
2018-05-13T07:02:13.965Z,20.30
2018-05-13T07:02:52.186Z,20.30
2018-05-13T07:03:29.531Z,20.30
2018-05-13T07:04:06.689Z,20.30
2018-05-13T07:04:44.104Z,20.30
2018-05-13T07:05:22.257Z,20.30
2018-05-13T07:06:00.387Z,20.30
2018-05-13T07:06:37.742Z,20.30
2018-05-13T07:07:15.013Z,20.30
2018-05-13T07:07:53.209Z,20.30
2018-05-13T07:08:31.420Z,20.30
2018-05-13T07:09:08.765Z,20.30
2018-05-13T07:09:46.162Z,20.30
2018-05-13T07:10:23.406Z,20.30
2018-05-13T07:11:01.411Z,20.40
2018-05-13T07:11:38.849Z,20.40
2018-05-13T07:12:16.043Z,20.50
2018-05-13T07:12:53.314Z,20.50
2018-05-13T07:13:30.777Z,20.50
2018-05-13T07:14:08.721Z,20.60
2018-05-13T07:14:46.063Z,20.50
2018-05-13T07:15:24.284Z,20.50
2018-05-13T07:16:01.563Z,20.50
2018-05-13T07:16:39.749Z,20.50
2018-05-13T07:17:17.953Z,20.60
2018-05-13T07:17:55.189Z,20.60
2018-05-13T07:18:32.628Z,20.60
2018-05-13T07:19:10.812Z,20.70
2018-05-13T07:19:49.101Z,20.70
2018-05-13T07:20:26.418Z,20.70
2018-05-13T07:21:03.627Z,20.70
2018-05-13T07:21:40.882Z,20.70
2018-05-13T07:22:18.261Z,20.70
2018-05-13T07:22:55.848Z,20.70
2018-05-13T07:23:33.859Z,20.70
2018-05-13T07:24:12.080Z,20.70
2018-05-13T07:24:49.313Z,20.80
2018-05-13T07:25:27.355Z,20.90
2018-05-13T07:26:04.576Z,20.80
2018-05-13T07:26:41.938Z,20.90
2018-05-13T07:27:20.087Z,20.80
2018-05-13T07:27:57.363Z,20.80
2018-05-13T07:28:34.673Z,20.80
2018-05-13T07:29:12.026Z,20.70
2018-05-13T07:29:49.422Z,20.80
2018-05-13T07:30:26.785Z,20.90
2018-05-13T07:31:03.987Z,20.90
2018-05-13T07:31:41.290Z,20.90
2018-05-13T07:32:18.674Z,20.90
2018-05-13T07:32:56.837Z,20.90
2018-05-13T07:33:34.213Z,20.90
2018-05-13T07:34:11.691Z,20.90
2018-05-13T07:34:48.975Z,20.90
2018-05-13T07:35:26.156Z,20.90
2018-05-13T07:36:03.466Z,20.80
2018-05-13T07:36:40.835Z,20.80
2018-05-13T07:37:18.827Z,20.90
2018-05-13T07:37:56.360Z,20.90
2018-05-13T07:38:34.393Z,20.90
2018-05-13T07:39:11.828Z,20.90
2018-05-13T07:39:49.011Z,20.80
2018-05-13T07:40:27.218Z,20.80
2018-05-13T07:41:04.495Z,20.80
2018-05-13T07:41:41.918Z,20.90
2018-05-13T07:42:19.922Z,21.00
2018-05-13T07:42:57.251Z,21.00
2018-05-13T07:43:34.659Z,21.00
2018-05-13T07:44:11.930Z,21.00
2018-05-13T07:44:50.096Z,21.00
2018-05-13T07:45:28.274Z,21.10
2018-05-13T07:46:06.483Z,21.10
2018-05-13T07:46:43.851Z,21.10
2018-05-13T07:47:22.041Z,21.00
2018-05-13T07:48:00.277Z,21.00
2018-05-13T07:48:37.600Z,21.00
2018-05-13T07:49:15.106Z,21.10
2018-05-13T07:49:52.566Z,21.10
2018-05-13T07:50:29.842Z,21.10
2018-05-13T07:51:07.037Z,21.00
2018-05-13T07:51:44.391Z,21.00
2018-05-13T07:52:21.807Z,21.00
2018-05-13T07:52:59.248Z,21.00
2018-05-13T07:53:36.568Z,21.00
2018-05-13T07:54:14.847Z,20.90
2018-05-13T07:54:52.005Z,20.90
2018-05-13T07:55:29.327Z,20.90
2018-05-13T07:56:06.509Z,20.90
2018-05-13T07:56:44.652Z,20.90
2018-05-13T07:57:22.041Z,21.00
2018-05-13T07:57:59.195Z,21.00
2018-05-13T07:58:36.452Z,21.00
2018-05-13T07:59:14.665Z,21.00
2018-05-13T07:59:52.075Z,21.00
2018-05-13T08:00:30.297Z,21.10
2018-05-13T08:01:07.588Z,21.10
2018-05-13T08:01:45.834Z,21.10
2018-05-13T08:02:23.232Z,21.10
2018-05-13T08:03:01.439Z,21.10
2018-05-13T08:03:38.630Z,21.10
2018-05-13T08:04:16.776Z,21.10
2018-05-13T08:04:54.077Z,21.10